createdAt,value
2018-08-25T00:02:07.459Z,7.00
2018-08-25T00:04:36.004Z,7.50
2018-08-25T00:07:05.700Z,6.57
2018-08-25T00:09:34.349Z,5.97
2018-08-25T00:12:02.893Z,10.20
2018-08-25T00:14:31.460Z,6.20
2018-08-25T00:17:00.098Z,6.03
2018-08-25T00:19:28.945Z,5.50
2018-08-25T00:21:57.624Z,4.23
2018-08-25T00:24:26.142Z,6.20
2018-08-25T00:26:55.091Z,7.73
2018-08-25T00:29:23.727Z,7.37
2018-08-25T00:31:52.655Z,5.03
2018-08-25T00:34:22.222Z,6.83
2018-08-25T00:36:51.004Z,9.10
2018-08-25T00:39:19.780Z,5.00
2018-08-25T00:41:48.792Z,8.27
2018-08-25T00:44:17.278Z,7.33
2018-08-25T00:46:45.826Z,8.50
2018-08-25T00:49:14.677Z,6.90
2018-08-25T00:51:43.670Z,6.90
2018-08-25T00:54:12.176Z,4.37
2018-08-25T00:56:40.895Z,5.30
2018-08-25T00:59:09.472Z,5.50
2018-08-25T01:01:38.935Z,7.57
2018-08-25T01:04:07.867Z,5.13
2018-08-25T01:06:36.399Z,7.17
2018-08-25T01:09:06.375Z,6.07
2018-08-25T01:11:34.948Z,5.00
2018-08-25T01:14:03.756Z,6.50
2018-08-25T01:16:32.287Z,6.47
2018-08-25T01:19:00.939Z,4.37
2018-08-25T01:21:29.560Z,9.13
2018-08-25T01:23:58.883Z,8.17
2018-08-25T01:26:27.529Z,4.93
2018-08-25T01:28:56.204Z,3.97
2018-08-25T01:31:27.548Z,8.23
2018-08-25T01:33:56.724Z,8.03
2018-08-25T01:36:25.831Z,8.03
2018-08-25T01:38:54.389Z,5.20
2018-08-25T01:41:23.293Z,5.93
2018-08-25T01:43:51.840Z,5.93
2018-08-25T01:46:20.699Z,5.87
2018-08-25T01:48:49.354Z,6.53
2018-08-25T01:51:17.901Z,4.30
2018-08-25T01:53:46.449Z,5.30
2018-08-25T01:56:15.045Z,6.10
2018-08-25T01:58:43.596Z,5.27
2018-08-25T02:01:12.096Z,5.17
2018-08-25T02:03:41.474Z,4.67
2018-08-25T02:06:10.668Z,5.13
2018-08-25T02:08:39.846Z,6.70
2018-08-25T02:11:09.033Z,8.43
2018-08-25T02:13:38.160Z,4.10
2018-08-25T02:16:07.487Z,5.80
2018-08-25T02:18:36.197Z,4.83
2018-08-25T02:21:04.983Z,6.87
2018-08-25T02:23:34.342Z,5.57
2018-08-25T02:26:03.092Z,5.50
2018-08-25T02:28:32.637Z,3.97
2018-08-25T02:31:01.173Z,5.77
2018-08-25T02:33:29.723Z,5.90
2018-08-25T02:35:58.375Z,8.27
2018-08-25T02:38:27.729Z,7.40
2018-08-25T02:40:56.854Z,4.90
2018-08-25T02:43:25.968Z,4.67
2018-08-25T02:45:54.598Z,7.23
2018-08-25T02:48:23.229Z,5.53
2018-08-25T02:50:51.832Z,5.07
2018-08-25T02:53:20.956Z,6.13
2018-08-25T02:55:50.355Z,4.20
2018-08-25T02:58:19.267Z,6.73
2018-08-25T03:00:48.820Z,7.57
2018-08-25T03:03:17.527Z,7.67
2018-08-25T03:05:46.013Z,7.53
2018-08-25T03:08:14.619Z,5.50
2018-08-25T03:10:43.138Z,4.70
2018-08-25T03:13:11.797Z,5.23
2018-08-25T03:15:40.339Z,6.97
2018-08-25T03:18:08.988Z,6.47
2018-08-25T03:20:37.648Z,6.97
2018-08-25T03:23:06.986Z,4.90
2018-08-25T03:25:35.503Z,7.70
2018-08-25T03:28:04.120Z,5.13
2018-08-25T03:30:33.118Z,5.97
2018-08-25T03:33:02.883Z,6.57
2018-08-25T03:35:31.635Z,5.83
2018-08-25T03:38:00.099Z,5.47
2018-08-25T03:40:29.358Z,6.00
2018-08-25T03:42:58.186Z,5.57
2018-08-25T03:45:26.944Z,5.47
2018-08-25T03:47:55.565Z,6.37
2018-08-25T03:50:24.400Z,5.40
2018-08-25T03:52:53.805Z,6.33
2018-08-25T03:55:22.494Z,7.40
2018-08-25T03:57:50.984Z,10.30
2018-08-25T04:00:20.334Z,8.00
2018-08-25T04:02:49.718Z,5.13
2018-08-25T04:05:18.316Z,6.50
2018-08-25T04:07:46.893Z,5.97
2018-08-25T04:10:16.220Z,4.97
2018-08-25T04:12:44.780Z,8.23
2018-08-25T04:15:13.287Z,5.97
2018-08-25T04:17:41.861Z,5.63
2018-08-25T04:20:10.372Z,9.90
2018-08-25T04:22:39.082Z,7.10
2018-08-25T04:25:07.822Z,6.50
2018-08-25T04:27:36.280Z,5.17
2018-08-25T04:30:05.676Z,8.00
2018-08-25T04:32:34.155Z,12.30
2018-08-25T04:35:02.760Z,5.27
2018-08-25T04:37:31.448Z,5.67
2018-08-25T04:40:00.168Z,6.60
2018-08-25T04:42:28.728Z,5.90
2018-08-25T04:44:57.968Z,5.37
2018-08-25T04:47:26.599Z,8.47
2018-08-25T04:49:55.168Z,7.30
2018-08-25T04:52:24.388Z,7.17
2018-08-25T04:54:53.516Z,8.00
2018-08-25T04:57:22.580Z,7.53
2018-08-25T04:59:51.136Z,6.13
2018-08-25T05:02:19.664Z,7.80
2018-08-25T05:04:48.248Z,9.67
2018-08-25T05:07:16.824Z,6.40
2018-08-25T05:09:45.937Z,7.30
2018-08-25T05:12:14.544Z,9.33
2018-08-25T05:14:43.120Z,6.53
2018-08-25T05:17:11.916Z,9.70
2018-08-25T05:19:40.389Z,8.27
2018-08-25T05:22:08.885Z,5.57
2018-08-25T05:24:38.284Z,5.67
2018-08-25T05:27:07.040Z,5.17
2018-08-25T05:29:35.641Z,7.00
2018-08-25T05:32:04.984Z,6.00
2018-08-25T05:34:33.503Z,7.40
2018-08-25T05:37:02.177Z,6.47
2018-08-25T05:39:31.731Z,7.83
2018-08-25T05:42:01.216Z,9.10
2018-08-25T05:44:30.058Z,5.80
2018-08-25T05:46:58.938Z,7.47
2018-08-25T05:49:27.523Z,7.67
2018-08-25T05:51:56.915Z,9.80
2018-08-25T05:54:25.930Z,10.23
2018-08-25T05:56:54.775Z,9.63
2018-08-25T05:59:23.942Z,6.33
2018-08-25T06:01:52.523Z,13.17
2018-08-25T06:04:21.232Z,7.47
2018-08-25T06:06:50.052Z,7.47
2018-08-25T06:09:18.561Z,7.53
2018-08-25T06:11:47.190Z,7.70
2018-08-25T06:14:15.940Z,7.80
2018-08-25T06:16:44.622Z,7.47
2018-08-25T06:19:13.375Z,5.90
2018-08-25T06:21:42.597Z,8.07
2018-08-25T06:24:12.179Z,6.03
2018-08-25T06:26:40.972Z,5.70
2018-08-25T06:29:10.249Z,6.93
2018-08-25T06:31:39.352Z,5.83
2018-08-25T06:34:08.618Z,6.70
2018-08-25T06:36:37.374Z,7.83
2018-08-25T06:39:07.993Z,5.73
2018-08-25T06:41:36.913Z,7.63
2018-08-25T06:44:06.014Z,10.90
2018-08-25T06:46:34.900Z,6.27
2018-08-25T06:49:03.539Z,9.80
2018-08-25T06:51:32.785Z,8.20
2018-08-25T06:54:02.107Z,5.77
2018-08-25T06:56:30.657Z,7.00
2018-08-25T06:58:59.272Z,7.90
2018-08-25T07:01:28.132Z,6.00
2018-08-25T07:03:58.439Z,6.53
2018-08-25T07:06:27.536Z,6.57
2018-08-25T07:08:56.025Z,6.43
2018-08-25T07:11:24.631Z,7.50
2018-08-25T07:13:54.015Z,7.67
2018-08-25T07:16:22.835Z,10.90
2018-08-25T07:18:51.755Z,11.70
2018-08-25T07:21:20.277Z,15.73
2018-08-25T07:23:48.805Z,12.77
2018-08-25T07:26:17.503Z,9.07
2018-08-25T07:28:46.100Z,8.10
2018-08-25T07:31:15.016Z,7.77
2018-08-25T07:33:44.128Z,8.70
2018-08-25T07:36:13.407Z,6.03
2018-08-25T07:38:42.050Z,9.73
2018-08-25T07:41:10.820Z,8.40
2018-08-25T07:43:39.391Z,6.67
2018-08-25T07:46:08.086Z,3.90
2018-08-25T07:48:37.280Z,8.57
2018-08-25T07:51:06.033Z,8.07
2018-08-25T07:53:34.842Z,5.83
2018-08-25T07:56:03.702Z,6.17
2018-08-25T07:58:32.545Z,4.90
2018-08-25T08:01:00.922Z,5.03
2018-08-25T08:03:29.877Z,9.07
2018-08-25T08:05:59.381Z,8.50
2018-08-25T08:08:27.944Z,7.57
2018-08-25T08:10:56.663Z,9.27
2018-08-25T08:13:25.473Z,4.63
2018-08-25T08:15:54.150Z,5.03
2018-08-25T08:18:23.629Z,8.23
2018-08-25T08:20:52.156Z,7.70
2018-08-25T08:23:20.751Z,7.87
2018-08-25T08:25:49.457Z,5.23
2018-08-25T08:28:18.540Z,5.00
2018-08-25T08:30:47.088Z,8.00
2018-08-25T08:33:15.767Z,8.00
2018-08-25T08:35:45.107Z,5.03
2018-08-25T08:38:13.846Z,5.20
2018-08-25T08:40:42.408Z,5.43
2018-08-25T08:43:10.960Z,5.70
2018-08-25T08:45:39.565Z,6.07
2018-08-25T08:48:08.260Z,7.70
2018-08-25T08:50:37.284Z,5.47
2018-08-25T08:53:05.892Z,6.83
2018-08-25T08:55:34.681Z,5.43
2018-08-25T08:58:04.233Z,11.20
2018-08-25T09:00:32.862Z,4.23
2018-08-25T09:03:02.619Z,4.57
2018-08-25T09:05:31.377Z,5.80
2018-08-25T09:07:59.967Z,4.23
2018-08-25T09:10:28.426Z,5.03
2018-08-25T09:12:57.069Z,3.57
2018-08-25T09:15:25.596Z,5.40
2018-08-25T09:17:54.832Z,4.83
2018-08-25T09:20:24.212Z,2.93
2018-08-25T09:22:53.001Z,5.63
2018-08-25T09:25:21.560Z,4.47
2018-08-25T09:27:50.677Z,7.43
2018-08-25T09:30:20.047Z,6.70
2018-08-25T09:32:49.032Z,3.60
2018-08-25T09:35:17.709Z,3.00
2018-08-25T09:37:46.285Z,3.17
2018-08-25T09:40:15.040Z,6.07
2018-08-25T09:42:47.151Z,5.30
2018-08-25T09:45:15.903Z,4.30
2018-08-25T09:47:44.548Z,4.03
2018-08-25T09:50:13.151Z,3.83
2018-08-25T09:52:41.717Z,6.80
2018-08-25T09:55:10.240Z,7.70
2018-08-25T09:57:39.478Z,4.87
2018-08-25T10:00:10.064Z,2.80
2018-08-25T10:02:38.688Z,4.17
2018-08-25T10:18:12.224Z,6.10
2018-08-25T10:20:40.940Z,6.17
2018-08-25T10:23:09.456Z,7.10
2018-08-25T10:25:38.127Z,3.20
2018-08-25T10:28:06.765Z,4.13
2018-08-25T10:30:35.508Z,2.60
2018-08-25T10:33:04.260Z,2.97
2018-08-25T10:35:32.835Z,5.17
2018-08-25T10:38:02.097Z,4.63
2018-08-25T10:40:31.628Z,2.67
2018-08-25T10:43:00.728Z,4.70
2018-08-25T10:45:29.634Z,3.47
2018-08-25T10:47:58.792Z,2.27
2018-08-25T10:50:28.012Z,3.40
2018-08-25T10:52:56.670Z,2.70
2018-08-25T10:55:25.642Z,2.77
2018-08-25T10:57:54.328Z,2.17
2018-08-25T11:00:22.996Z,2.87
2018-08-25T11:02:51.876Z,3.27
2018-08-25T11:05:20.741Z,2.33
2018-08-25T11:07:49.988Z,2.87
2018-08-25T11:10:18.586Z,4.43
2018-08-25T11:12:47.529Z,3.53
2018-08-25T11:15:16.205Z,4.97
2018-08-25T11:17:44.757Z,4.53
2018-08-25T11:20:13.735Z,3.77
2018-08-25T11:22:43.172Z,2.37
2018-08-25T11:25:11.883Z,2.93
2018-08-25T11:27:40.482Z,1.60
2018-08-25T11:30:09.300Z,2.90
2018-08-25T11:32:41.028Z,4.50
2018-08-25T11:35:09.716Z,4.17
2018-08-25T11:37:38.437Z,2.27
2018-08-25T11:40:07.889Z,3.67
2018-08-25T11:42:36.573Z,2.07
2018-08-25T11:45:06.372Z,3.00
2018-08-25T11:47:35.668Z,1.90
2018-08-25T11:50:04.735Z,2.10
2018-08-25T11:52:33.964Z,1.83
2018-08-25T11:55:03.193Z,4.13
2018-08-25T11:57:31.968Z,2.20
2018-08-25T12:00:01.053Z,2.40
2018-08-25T12:02:30.043Z,3.03
2018-08-25T12:04:58.697Z,1.67
2018-08-25T12:07:27.358Z,1.47
2018-08-25T12:09:56.034Z,2.00
2018-08-25T12:12:24.665Z,4.27
2018-08-25T12:14:54.068Z,0.80
2018-08-25T12:17:22.667Z,2.70
2018-08-25T12:19:51.464Z,0.80
2018-08-25T12:22:20.281Z,1.10
2018-08-25T12:24:49.099Z,2.70
2018-08-25T12:27:18.180Z,1.77
2018-08-25T12:29:46.977Z,1.60
2018-08-25T12:32:15.640Z,1.80
2018-08-25T12:34:44.416Z,0.70
2018-08-25T12:37:13.164Z,1.57
2018-08-25T12:39:41.852Z,1.63
2018-08-25T12:42:10.787Z,1.07
2018-08-25T12:44:39.468Z,1.43
2018-08-25T12:47:08.058Z,3.40
2018-08-25T12:49:36.760Z,0.97
2018-08-25T12:52:06.779Z,2.27
2018-08-25T12:54:35.414Z,0.77
2018-08-25T12:57:04.289Z,0.93
2018-08-25T12:59:32.793Z,2.43
2018-08-25T13:02:02.057Z,2.30
2018-08-25T13:04:30.674Z,0.50
2018-08-25T13:06:59.852Z,1.83
2018-08-25T13:09:29.291Z,0.60
2018-08-25T13:11:58.297Z,1.00
2018-08-25T13:14:26.857Z,0.60
2018-08-25T13:16:56.037Z,0.60
2018-08-25T13:19:24.906Z,1.43
2018-08-25T13:21:54.346Z,1.17
2018-08-25T13:24:23.040Z,1.60
2018-08-25T13:26:52.890Z,3.37
2018-08-25T13:29:21.605Z,1.20
2018-08-25T13:31:50.097Z,1.53
2018-08-25T13:34:18.741Z,0.77
2018-08-25T13:36:48.046Z,1.50
2018-08-25T13:39:17.348Z,1.90
2018-08-25T13:41:46.319Z,1.33
2018-08-25T13:44:15.032Z,0.90
2018-08-25T13:46:43.916Z,0.97
2018-08-25T13:49:12.753Z,1.00
2018-08-25T13:51:41.399Z,0.63
2018-08-25T13:54:10.213Z,1.50
2018-08-25T13:56:38.781Z,1.63
2018-08-25T13:59:07.580Z,1.20
2018-08-25T14:01:36.940Z,0.77
2018-08-25T14:04:06.217Z,1.20
2018-08-25T14:06:35.007Z,0.77
2018-08-25T14:09:05.032Z,0.90
2018-08-25T14:11:33.706Z,0.93
2018-08-25T14:14:02.485Z,1.80
2018-08-25T14:16:31.182Z,1.30
2018-08-25T14:19:00.706Z,1.57
2018-08-25T14:21:29.673Z,1.20
2018-08-25T14:23:58.403Z,0.87
2018-08-25T14:26:27.372Z,1.20
2018-08-25T14:28:56.774Z,2.30
2018-08-25T14:31:25.688Z,0.60
2018-08-25T14:33:55.035Z,0.90
2018-08-25T14:36:24.077Z,0.80
2018-08-25T14:38:53.278Z,1.20
2018-08-25T14:41:22.056Z,1.27
2018-08-25T14:43:50.861Z,0.40
2018-08-25T14:46:19.541Z,1.17
2018-08-25T14:48:49.413Z,0.80
2018-08-25T14:51:18.038Z,0.70
2018-08-25T14:53:46.608Z,0.80
2018-08-25T14:56:15.871Z,1.17
2018-08-25T14:58:44.703Z,2.57
2018-08-25T15:01:13.328Z,1.20
2018-08-25T15:03:42.099Z,1.67
2018-08-25T15:06:10.767Z,1.37
2018-08-25T15:08:40.037Z,0.93
2018-08-25T15:11:09.556Z,1.07
2018-08-25T15:13:38.152Z,3.10
2018-08-25T15:16:06.743Z,0.93
2018-08-25T15:18:35.951Z,1.47
2018-08-25T15:21:05.412Z,1.37
2018-08-25T15:23:34.084Z,0.87
2018-08-25T15:26:03.641Z,0.73
2018-08-25T15:28:32.233Z,0.87
2018-08-25T15:31:01.122Z,1.77
2018-08-25T15:33:30.325Z,1.83
2018-08-25T15:35:58.900Z,0.70
2018-08-25T15:38:27.506Z,1.60
2018-08-25T15:40:56.136Z,1.83
2018-08-25T15:43:25.516Z,1.10
2018-08-25T15:45:54.202Z,2.67
2018-08-25T15:48:22.954Z,1.93
2018-08-25T15:50:51.673Z,0.83
2018-08-25T15:53:20.308Z,1.00
2018-08-25T15:55:49.540Z,0.70
2018-08-25T15:58:18.201Z,1.37
2018-08-25T16:00:46.836Z,2.13
2018-08-25T16:03:15.469Z,4.47
2018-08-25T16:05:44.375Z,2.37
2018-08-25T16:08:12.933Z,1.37
2018-08-25T16:10:41.923Z,3.90
2018-08-25T16:13:11.380Z,2.27
2018-08-25T16:15:40.256Z,3.43
2018-08-25T16:18:08.786Z,4.47
2018-08-25T16:20:37.323Z,4.97
2018-08-25T16:23:06.331Z,2.63
2018-08-25T16:25:34.882Z,1.80
2018-08-25T16:28:03.570Z,1.73
2018-08-25T16:30:32.183Z,2.13
2018-08-25T16:33:00.840Z,1.00
2018-08-25T16:35:29.445Z,1.43
2018-08-25T16:37:58.087Z,0.70
2018-08-25T16:40:26.603Z,0.97
2018-08-25T16:42:55.140Z,1.50
2018-08-25T16:45:24.217Z,0.80
2018-08-25T16:47:52.947Z,1.57
2018-08-25T16:50:22.115Z,1.90
2018-08-25T16:52:50.730Z,1.37
2018-08-25T16:55:19.478Z,2.10
2018-08-25T16:57:48.013Z,2.00
2018-08-25T17:00:16.717Z,0.97
2018-08-25T17:02:45.388Z,2.20
2018-08-25T17:05:15.094Z,1.43
2018-08-25T17:07:43.596Z,1.07
2018-08-25T17:10:12.544Z,1.23
2018-08-25T17:12:41.682Z,0.93
2018-08-25T17:15:10.305Z,2.23
2018-08-25T17:17:38.814Z,2.03
2018-08-25T17:20:07.518Z,2.17
2018-08-25T17:22:36.215Z,1.77
2018-08-25T17:25:04.959Z,2.13
2018-08-25T17:27:34.383Z,2.57
2018-08-25T17:30:03.180Z,1.37
2018-08-25T17:32:31.859Z,1.70
2018-08-25T17:35:00.446Z,1.47
2018-08-25T17:37:29.232Z,0.97
2018-08-25T17:39:58.270Z,1.43
2018-08-25T17:42:27.089Z,3.00
2018-08-25T17:44:55.801Z,1.83
2018-08-25T17:47:24.897Z,1.67
2018-08-25T17:49:54.064Z,1.00
2018-08-25T17:52:23.504Z,3.33
2018-08-25T17:54:52.435Z,1.70
2018-08-25T17:57:21.958Z,2.60
2018-08-25T17:59:51.138Z,1.10
2018-08-25T18:02:20.080Z,1.93
2018-08-25T18:04:48.806Z,3.00
2018-08-25T18:07:17.790Z,1.50
2018-08-25T18:09:46.484Z,1.90
2018-08-25T18:12:15.162Z,1.43
2018-08-25T18:14:43.941Z,1.77
2018-08-25T18:17:12.756Z,3.47
2018-08-25T18:19:42.097Z,3.00
2018-08-25T18:22:10.958Z,1.47
2018-08-25T18:24:39.948Z,3.30
2018-08-25T18:27:08.646Z,2.07
2018-08-25T18:29:37.814Z,5.03
2018-08-25T18:32:07.453Z,2.57
2018-08-25T18:34:35.959Z,1.10
2018-08-25T18:37:05.764Z,2.53
2018-08-25T18:39:34.804Z,1.30
2018-08-25T18:42:03.853Z,1.73
2018-08-25T18:44:33.208Z,1.83
2018-08-25T18:47:02.405Z,1.33
2018-08-25T18:49:30.939Z,1.40
2018-08-25T18:52:00.076Z,2.53
2018-08-25T18:54:29.256Z,1.40
2018-08-25T18:56:58.263Z,3.47
2018-08-25T18:59:27.192Z,4.20
2018-08-25T19:01:57.177Z,2.17
2018-08-25T19:04:27.374Z,2.70
2018-08-25T19:06:57.261Z,3.40
2018-08-25T19:09:26.067Z,1.73
2018-08-25T19:11:54.985Z,1.20
2018-08-25T19:14:23.927Z,2.00
2018-08-25T19:16:53.672Z,3.83
2018-08-25T19:19:22.971Z,3.67
2018-08-25T19:21:52.785Z,2.30
2018-08-25T19:24:21.928Z,1.63
2018-08-25T19:26:51.166Z,1.77
2018-08-25T19:29:20.386Z,4.50
2018-08-25T19:31:49.686Z,1.63
2018-08-25T19:34:18.770Z,3.43
2018-08-25T19:36:48.054Z,2.73
2018-08-25T19:39:17.154Z,1.20
2018-08-25T19:41:46.452Z,1.97
2018-08-25T19:44:15.760Z,3.53
2018-08-25T19:46:45.284Z,2.73
2018-08-25T19:49:14.967Z,3.50
2018-08-25T19:51:44.361Z,2.97
2018-08-25T19:54:13.608Z,2.47
2018-08-25T19:56:42.561Z,1.83
2018-08-25T19:59:12.076Z,3.50
2018-08-25T20:01:41.009Z,1.90
2018-08-25T20:04:10.036Z,1.50
2018-08-25T20:06:38.730Z,1.57
2018-08-25T20:09:08.300Z,2.37
2018-08-25T20:11:37.628Z,2.37
2018-08-25T20:14:07.000Z,3.87
2018-08-25T20:16:36.544Z,2.50
2018-08-25T20:19:05.494Z,2.70
2018-08-25T20:21:34.950Z,1.70
2018-08-25T20:24:04.565Z,3.03
2018-08-25T20:26:33.153Z,3.97
2018-08-25T20:29:02.487Z,2.47
2018-08-25T20:31:31.702Z,2.50
2018-08-25T20:34:01.069Z,6.07
2018-08-25T20:36:30.339Z,8.37
2018-08-25T20:38:59.410Z,2.43
2018-08-25T20:41:28.481Z,2.77
2018-08-25T20:43:57.112Z,8.23
2018-08-25T20:46:25.699Z,2.50
2018-08-25T20:48:54.340Z,7.53
2018-08-25T20:51:23.141Z,2.83
2018-08-25T20:53:51.700Z,4.77
2018-08-25T20:56:21.296Z,2.63
2018-08-25T20:58:50.012Z,4.73
2018-08-25T21:01:18.729Z,5.60
2018-08-25T21:03:47.977Z,2.20
2018-08-25T21:06:16.491Z,1.87
2018-08-25T21:08:45.368Z,1.83
2018-08-25T21:11:14.328Z,3.33
2018-08-25T21:13:42.851Z,1.60
2018-08-25T21:16:11.533Z,2.67
2018-08-25T21:18:40.329Z,3.20
2018-08-25T21:21:09.034Z,2.67
2018-08-25T21:23:38.176Z,2.70
2018-08-25T21:26:08.033Z,1.80
2018-08-25T21:28:36.876Z,2.00
2018-08-25T21:31:06.460Z,1.80
2018-08-25T21:33:35.076Z,2.40
2018-08-25T21:36:03.613Z,2.07
2018-08-25T21:38:32.173Z,2.40
2018-08-25T21:41:00.988Z,2.37
2018-08-25T21:43:29.625Z,4.13
2018-08-25T21:45:58.721Z,2.30
2018-08-25T21:48:27.848Z,3.23
2018-08-25T21:50:56.625Z,4.00
2018-08-25T21:53:25.329Z,2.43
2018-08-25T21:55:54.511Z,2.00
2018-08-25T21:58:23.297Z,1.87
2018-08-25T22:00:56.150Z,2.80
2018-08-25T22:03:26.232Z,2.77
2018-08-25T22:05:56.226Z,1.93
2018-08-25T22:08:25.523Z,2.63
2018-08-25T22:10:54.684Z,1.90
2018-08-25T22:13:23.307Z,2.20
2018-08-25T22:15:52.033Z,2.10
2018-08-25T22:18:21.532Z,2.67
2018-08-25T22:20:50.053Z,2.13
2018-08-25T22:23:18.870Z,3.93
2018-08-25T22:25:48.228Z,2.63
2018-08-25T22:28:16.874Z,2.03
2018-08-25T22:30:45.428Z,3.27
2018-08-25T22:33:14.333Z,2.53
2018-08-25T22:35:43.712Z,2.70
2018-08-25T22:38:12.412Z,2.13
2018-08-25T22:40:41.679Z,1.93
2018-08-25T22:43:10.308Z,1.90
2018-08-25T22:45:38.891Z,2.63
2018-08-25T22:48:08.160Z,1.80
2018-08-25T22:50:37.717Z,2.23
2018-08-25T22:53:06.281Z,2.53
2018-08-25T22:55:35.527Z,2.80
2018-08-25T22:58:04.177Z,2.37
2018-08-25T23:00:33.389Z,1.83
2018-08-25T23:03:02.197Z,2.03
2018-08-25T23:05:30.782Z,3.93
2018-08-25T23:07:59.268Z,2.70
2018-08-25T23:10:28.218Z,2.20
2018-08-25T23:12:57.561Z,2.17
2018-08-25T23:15:26.798Z,2.50
2018-08-25T23:17:56.172Z,2.50
2018-08-25T23:20:24.701Z,4.03
2018-08-25T23:22:53.340Z,4.23
2018-08-25T23:25:22.766Z,2.87
2018-08-25T23:27:52.103Z,4.00
2018-08-25T23:30:20.925Z,1.93
2018-08-25T23:32:49.360Z,2.10
2018-08-25T23:35:18.543Z,1.97
2018-08-25T23:37:47.064Z,2.50
2018-08-25T23:40:15.733Z,2.33
2018-08-25T23:42:44.347Z,3.03
2018-08-25T23:45:13.199Z,2.43
2018-08-25T23:47:41.851Z,4.80
2018-08-25T23:50:11.048Z,2.37
2018-08-25T23:52:40.360Z,2.70
2018-08-25T23:55:09.419Z,3.00
2018-08-25T23:57:38.124Z,3.53
